sensor_id;sensor_type;location;lat;lon;timestamp;P1;durP1;ratioP1;P2;durP2;ratioP2
77589;SDS011;66746;51.328;12.332;2023-03-07T00:01:50;27.63;;;13.88;;
77589;SDS011;66746;51.328;12.332;2023-03-07T00:04:16;26.42;;;13.07;;
77589;SDS011;66746;51.328;12.332;2023-03-07T00:06:43;27.42;;;13.02;;
77589;SDS011;66746;51.328;12.332;2023-03-07T00:09:09;26.52;;;12.05;;
77589;SDS011;66746;51.328;12.332;2023-03-07T00:11:37;27.70;;;13.23;;
77589;SDS011;66746;51.328;12.332;2023-03-07T00:14:05;23.25;;;12.20;;
77589;SDS011;66746;51.328;12.332;2023-03-07T00:16:32;28.70;;;13.05;;
77589;SDS011;66746;51.328;12.332;2023-03-07T00:18:59;24.27;;;12.32;;
77589;SDS011;66746;51.328;12.332;2023-03-07T00:21:25;24.70;;;13.68;;
77589;SDS011;66746;51.328;12.332;2023-03-07T00:23:52;27.33;;;12.23;;
77589;SDS011;66746;51.328;12.332;2023-03-07T00:26:19;26.15;;;12.90;;
77589;SDS011;66746;51.328;12.332;2023-03-07T00:28:49;26.05;;;12.30;;
77589;SDS011;66746;51.328;12.332;2023-03-07T00:31:18;25.45;;;11.38;;
77589;SDS011;66746;51.328;12.332;2023-03-07T00:33:45;26.08;;;12.88;;
77589;SDS011;66746;51.328;12.332;2023-03-07T00:36:12;22.95;;;12.10;;
77589;SDS011;66746;51.328;12.332;2023-03-07T00:38:44;25.77;;;12.30;;
77589;SDS011;66746;51.328;12.332;2023-03-07T00:41:12;25.20;;;12.07;;
77589;SDS011;66746;51.328;12.332;2023-03-07T00:43:48;26.92;;;13.75;;
77589;SDS011;66746;51.328;12.332;2023-03-07T00:46:16;25.50;;;11.93;;
77589;SDS011;66746;51.328;12.332;2023-03-07T00:48:44;24.73;;;12.32;;
77589;SDS011;66746;51.328;12.332;2023-03-07T00:51:16;26.13;;;13.43;;
77589;SDS011;66746;51.328;12.332;2023-03-07T00:53:44;28.85;;;13.13;;
77589;SDS011;66746;51.328;12.332;2023-03-07T00:56:13;26.75;;;13.00;;
77589;SDS011;66746;51.328;12.332;2023-03-07T00:58:43;27.02;;;12.93;;
77589;SDS011;66746;51.328;12.332;2023-03-07T01:01:16;26.48;;;12.25;;
77589;SDS011;66746;51.328;12.332;2023-03-07T01:03:47;24.75;;;12.55;;
77589;SDS011;66746;51.328;12.332;2023-03-07T01:06:15;29.58;;;12.77;;
77589;SDS011;66746;51.328;12.332;2023-03-07T01:08:43;22.85;;;11.43;;
77589;SDS011;66746;51.328;12.332;2023-03-07T01:11:13;25.77;;;12.32;;
77589;SDS011;66746;51.328;12.332;2023-03-07T01:13:41;27.23;;;12.20;;
77589;SDS011;66746;51.328;12.332;2023-03-07T01:16:09;25.83;;;12.52;;
77589;SDS011;66746;51.328;12.332;2023-03-07T01:18:44;26.77;;;11.70;;
77589;SDS011;66746;51.328;12.332;2023-03-07T01:21:16;26.38;;;13.88;;
77589;SDS011;66746;51.328;12.332;2023-03-07T01:23:44;25.75;;;11.93;;
77589;SDS011;66746;51.328;12.332;2023-03-07T01:26:12;25.27;;;11.88;;
77589;SDS011;66746;51.328;12.332;2023-03-07T01:28:48;26.17;;;13.05;;
77589;SDS011;66746;51.328;12.332;2023-03-07T01:31:15;27.85;;;12.90;;
77589;SDS011;66746;51.328;12.332;2023-03-07T01:33:42;27.35;;;12.30;;
77589;SDS011;66746;51.328;12.332;2023-03-07T01:36:14;22.75;;;12.45;;
77589;SDS011;66746;51.328;12.332;2023-03-07T01:38:43;22.95;;;11.60;;
77589;SDS011;66746;51.328;12.332;2023-03-07T01:41:13;22.15;;;13.05;;
77589;SDS011;66746;51.328;12.332;2023-03-07T01:43:45;24.25;;;13.25;;
77589;SDS011;66746;51.328;12.332;2023-03-07T01:46:19;22.55;;;11.57;;
77589;SDS011;66746;51.328;12.332;2023-03-07T01:48:56;25.17;;;12.82;;
77589;SDS011;66746;51.328;12.332;2023-03-07T01:51:28;23.83;;;12.88;;
77589;SDS011;66746;51.328;12.332;2023-03-07T01:53:58;24.60;;;13.23;;
77589;SDS011;66746;51.328;12.332;2023-03-07T01:56:27;24.95;;;11.90;;
77589;SDS011;66746;51.328;12.332;2023-03-07T01:58:54;20.70;;;11.02;;
77589;SDS011;66746;51.328;12.332;2023-03-07T02:01:21;25.13;;;13.23;;
77589;SDS011;66746;51.328;12.332;2023-03-07T02:03:50;23.13;;;12.70;;
77589;SDS011;66746;51.328;12.332;2023-03-07T02:06:21;27.48;;;13.50;;
77589;SDS011;66746;51.328;12.332;2023-03-07T02:08:50;27.65;;;13.25;;
77589;SDS011;66746;51.328;12.332;2023-03-07T02:11:20;27.10;;;12.85;;
77589;SDS011;66746;51.328;12.332;2023-03-07T02:13:47;23.38;;;12.85;;
77589;SDS011;66746;51.328;12.332;2023-03-07T02:16:14;24.52;;;13.88;;
77589;SDS011;66746;51.328;12.332;2023-03-07T02:18:45;23.38;;;13.05;;
77589;SDS011;66746;51.328;12.332;2023-03-07T02:21:17;26.25;;;14.25;;
77589;SDS011;66746;51.328;12.332;2023-03-07T02:23:52;24.88;;;12.75;;
77589;SDS011;66746;51.328;12.332;2023-03-07T02:26:25;28.15;;;14.15;;
77589;SDS011;66746;51.328;12.332;2023-03-07T02:29:09;27.45;;;13.77;;
77589;SDS011;66746;51.328;12.332;2023-03-07T02:31:48;28.48;;;14.10;;
77589;SDS011;66746;51.328;12.332;2023-03-07T02:34:16;23.33;;;13.77;;
77589;SDS011;66746;51.328;12.332;2023-03-07T02:36:45;25.98;;;14.20;;
77589;SDS011;66746;51.328;12.332;2023-03-07T02:39:17;26.55;;;14.73;;
77589;SDS011;66746;51.328;12.332;2023-03-07T02:41:49;25.05;;;13.35;;
77589;SDS011;66746;51.328;12.332;2023-03-07T02:44:25;21.10;;;12.38;;
77589;SDS011;66746;51.328;12.332;2023-03-07T02:46:51;28.10;;;13.93;;
77589;SDS011;66746;51.328;12.332;2023-03-07T02:49:21;24.80;;;13.48;;
77589;SDS011;66746;51.328;12.332;2023-03-07T02:51:47;24.88;;;12.60;;
77589;SDS011;66746;51.328;12.332;2023-03-07T02:54:14;21.60;;;13.05;;
77589;SDS011;66746;51.328;12.332;2023-03-07T02:56:43;24.60;;;13.52;;
77589;SDS011;66746;51.328;12.332;2023-03-07T02:59:12;28.65;;;13.23;;
77589;SDS011;66746;51.328;12.332;2023-03-07T03:01:41;21.05;;;12.48;;
77589;SDS011;66746;51.328;12.332;2023-03-07T03:04:11;24.48;;;12.30;;
77589;SDS011;66746;51.328;12.332;2023-03-07T03:06:41;22.02;;;12.52;;
77589;SDS011;66746;51.328;12.332;2023-03-07T03:09:10;22.13;;;12.45;;
77589;SDS011;66746;51.328;12.332;2023-03-07T03:11:36;24.48;;;12.30;;
77589;SDS011;66746;51.328;12.332;2023-03-07T03:14:03;20.92;;;12.23;;
77589;SDS011;66746;51.328;12.332;2023-03-07T03:16:31;21.83;;;11.88;;
77589;SDS011;66746;51.328;12.332;2023-03-07T03:18:58;20.10;;;11.70;;
77589;SDS011;66746;51.328;12.332;2023-03-07T03:21:24;20.70;;;11.13;;
77589;SDS011;66746;51.328;12.332;2023-03-07T03:23:51;22.13;;;12.07;;
77589;SDS011;66746;51.328;12.332;2023-03-07T03:26:17;20.58;;;11.93;;
77589;SDS011;66746;51.328;12.332;2023-03-07T03:28:44;21.27;;;11.55;;
77589;SDS011;66746;51.328;12.332;2023-03-07T03:31:11;23.00;;;11.82;;
77589;SDS011;66746;51.328;12.332;2023-03-07T03:33:40;21.90;;;11.20;;
77589;SDS011;66746;51.328;12.332;2023-03-07T03:36:11;17.90;;;10.27;;
77589;SDS011;66746;51.328;12.332;2023-03-07T03:38:45;23.45;;;12.77;;
77589;SDS011;66746;51.328;12.332;2023-03-07T03:41:13;20.60;;;11.40;;
77589;SDS011;66746;51.328;12.332;2023-03-07T03:46:12;18.48;;;10.82;;
77589;SDS011;66746;51.328;12.332;2023-03-07T03:48:42;17.35;;;9.88;;
77589;SDS011;66746;51.328;12.332;2023-03-07T03:51:11;17.02;;;10.00;;
77589;SDS011;66746;51.328;12.332;2023-03-07T03:53:43;19.17;;;10.88;;
77589;SDS011;66746;51.328;12.332;2023-03-07T03:56:16;20.00;;;11.85;;
77589;SDS011;66746;51.328;12.332;2023-03-07T03:58:45;18.40;;;10.73;;
77589;SDS011;66746;51.328;12.332;2023-03-07T04:01:12;20.40;;;11.48;;
77589;SDS011;66746;51.328;12.332;2023-03-07T04:03:43;20.92;;;10.00;;
77589;SDS011;66746;51.328;12.332;2023-03-07T04:06:12;18.52;;;11.40;;
77589;SDS011;66746;51.328;12.332;2023-03-07T04:08:42;18.33;;;10.20;;
77589;SDS011;66746;51.328;12.332;2023-03-07T04:11:11;18.58;;;10.25;;
77589;SDS011;66746;51.328;12.332;2023-03-07T04:13:46;19.08;;;10.32;;
77589;SDS011;66746;51.328;12.332;2023-03-07T04:16:13;21.73;;;11.07;;
77589;SDS011;66746;51.328;12.332;2023-03-07T04:18:40;17.95;;;9.60;;
77589;SDS011;66746;51.328;12.332;2023-03-07T04:21:09;20.58;;;10.65;;
77589;SDS011;66746;51.328;12.332;2023-03-07T04:23:38;19.63;;;10.32;;
77589;SDS011;66746;51.328;12.332;2023-03-07T04:26:06;19.05;;;10.48;;
77589;SDS011;66746;51.328;12.332;2023-03-07T04:28:35;18.73;;;10.43;;
77589;SDS011;66746;51.328;12.332;2023-03-07T04:31:03;19.08;;;9.88;;
77589;SDS011;66746;51.328;12.332;2023-03-07T04:33:32;20.08;;;9.73;;
77589;SDS011;66746;51.328;12.332;2023-03-07T04:35:59;16.55;;;8.70;;
77589;SDS011;66746;51.328;12.332;2023-03-07T04:38:27;19.52;;;9.98;;
77589;SDS011;66746;51.328;12.332;2023-03-07T04:40:53;19.80;;;10.70;;
77589;SDS011;66746;51.328;12.332;2023-03-07T04:43:20;17.80;;;10.18;;
77589;SDS011;66746;51.328;12.332;2023-03-07T04:45:46;17.52;;;10.02;;
77589;SDS011;66746;51.328;12.332;2023-03-07T04:48:14;20.95;;;10.77;;
77589;SDS011;66746;51.328;12.332;2023-03-07T04:50:46;21.85;;;10.80;;
77589;SDS011;66746;51.328;12.332;2023-03-07T04:53:14;18.35;;;9.88;;
77589;SDS011;66746;51.328;12.332;2023-03-07T04:55:42;18.83;;;9.73;;
77589;SDS011;66746;51.328;12.332;2023-03-07T04:58:11;16.27;;;8.63;;
77589;SDS011;66746;51.328;12.332;2023-03-07T05:00:40;19.23;;;10.18;;
77589;SDS011;66746;51.328;12.332;2023-03-07T05:03:14;16.50;;;8.75;;
77589;SDS011;66746;51.328;12.332;2023-03-07T05:05:41;14.32;;;8.52;;
77589;SDS011;66746;51.328;12.332;2023-03-07T05:10:47;17.55;;;9.63;;
77589;SDS011;66746;51.328;12.332;2023-03-07T05:13:15;16.73;;;9.95;;
77589;SDS011;66746;51.328;12.332;2023-03-07T05:15:42;16.23;;;8.40;;
77589;SDS011;66746;51.328;12.332;2023-03-07T05:18:14;13.10;;;9.07;;
77589;SDS011;66746;51.328;12.332;2023-03-07T05:20:42;15.35;;;8.07;;
77589;SDS011;66746;51.328;12.332;2023-03-07T05:23:16;14.07;;;8.68;;
77589;SDS011;66746;51.328;12.332;2023-03-07T05:25:47;16.67;;;9.13;;
77589;SDS011;66746;51.328;12.332;2023-03-07T05:28:14;15.38;;;8.20;;
77589;SDS011;66746;51.328;12.332;2023-03-07T05:30:41;16.17;;;9.23;;
77589;SDS011;66746;51.328;12.332;2023-03-07T05:33:10;13.93;;;8.43;;
77589;SDS011;66746;51.328;12.332;2023-03-07T05:35:43;14.48;;;7.90;;
77589;SDS011;66746;51.328;12.332;2023-03-07T05:38:12;15.85;;;8.02;;
77589;SDS011;66746;51.328;12.332;2023-03-07T05:40:41;15.50;;;7.93;;
77589;SDS011;66746;51.328;12.332;2023-03-07T05:43:15;11.40;;;7.40;;
77589;SDS011;66746;51.328;12.332;2023-03-07T05:45:42;13.00;;;7.32;;
77589;SDS011;66746;51.328;12.332;2023-03-07T05:48:09;13.32;;;7.13;;
77589;SDS011;66746;51.328;12.332;2023-03-07T05:50:36;14.20;;;7.95;;
77589;SDS011;66746;51.328;12.332;2023-03-07T05:53:03;12.00;;;6.97;;
77589;SDS011;66746;51.328;12.332;2023-03-07T05:55:29;12.13;;;6.50;;
77589;SDS011;66746;51.328;12.332;2023-03-07T05:57:57;11.05;;;7.25;;
77589;SDS011;66746;51.328;12.332;2023-03-07T06:00:25;12.90;;;6.82;;
77589;SDS011;66746;51.328;12.332;2023-03-07T06:02:59;9.90;;;5.85;;
77589;SDS011;66746;51.328;12.332;2023-03-07T06:05:27;13.52;;;7.90;;
77589;SDS011;66746;51.328;12.332;2023-03-07T06:07:54;11.60;;;6.15;;
77589;SDS011;66746;51.328;12.332;2023-03-07T06:10:21;8.25;;;5.78;;
77589;SDS011;66746;51.328;12.332;2023-03-07T06:12:48;11.13;;;6.35;;
77589;SDS011;66746;51.328;12.332;2023-03-07T06:15:14;11.48;;;7.43;;
77589;SDS011;66746;51.328;12.332;2023-03-07T06:17:46;9.57;;;5.50;;
77589;SDS011;66746;51.328;12.332;2023-03-07T06:20:12;12.25;;;6.70;;
77589;SDS011;66746;51.328;12.332;2023-03-07T06:22:44;11.45;;;7.00;;
77589;SDS011;66746;51.328;12.332;2023-03-07T06:25:12;12.05;;;7.15;;
77589;SDS011;66746;51.328;12.332;2023-03-07T06:27:42;8.80;;;6.40;;
77589;SDS011;66746;51.328;12.332;2023-03-07T06:30:19;10.82;;;6.70;;
77589;SDS011;66746;51.328;12.332;2023-03-07T06:32:47;9.82;;;5.65;;
77589;SDS011;66746;51.328;12.332;2023-03-07T06:35:14;9.98;;;6.43;;
77589;SDS011;66746;51.328;12.332;2023-03-07T06:37:44;9.60;;;6.00;;
77589;SDS011;66746;51.328;12.332;2023-03-07T06:40:21;9.55;;;5.88;;
77589;SDS011;66746;51.328;12.332;2023-03-07T06:42:47;10.18;;;5.82;;
77589;SDS011;66746;51.328;12.332;2023-03-07T06:45:17;10.65;;;7.10;;
77589;SDS011;66746;51.328;12.332;2023-03-07T06:47:44;9.23;;;5.25;;
77589;SDS011;66746;51.328;12.332;2023-03-07T06:50:20;10.63;;;6.57;;
77589;SDS011;66746;51.328;12.332;2023-03-07T06:53:00;8.57;;;5.13;;
77589;SDS011;66746;51.328;12.332;2023-03-07T06:55:27;9.35;;;5.80;;
77589;SDS011;66746;51.328;12.332;2023-03-07T06:57:53;8.88;;;5.10;;
77589;SDS011;66746;51.328;12.332;2023-03-07T07:00:20;10.25;;;6.47;;
77589;SDS011;66746;51.328;12.332;2023-03-07T07:02:50;10.52;;;6.72;;
77589;SDS011;66746;51.328;12.332;2023-03-07T07:05:30;10.68;;;5.50;;
77589;SDS011;66746;51.328;12.332;2023-03-07T07:07:57;9.25;;;5.35;;
77589;SDS011;66746;51.328;12.332;2023-03-07T07:10:26;7.70;;;5.50;;
77589;SDS011;66746;51.328;12.332;2023-03-07T07:12:52;7.97;;;5.00;;
77589;SDS011;66746;51.328;12.332;2023-03-07T07:15:21;8.35;;;5.75;;
77589;SDS011;66746;51.328;12.332;2023-03-07T07:17:53;9.27;;;6.78;;
77589;SDS011;66746;51.328;12.332;2023-03-07T07:20:26;8.18;;;5.63;;
77589;SDS011;66746;51.328;12.332;2023-03-07T07:22:58;8.05;;;4.95;;
77589;SDS011;66746;51.328;12.332;2023-03-07T07:25:27;10.25;;;5.90;;
77589;SDS011;66746;51.328;12.332;2023-03-07T07:27:56;8.57;;;5.47;;
77589;SDS011;66746;51.328;12.332;2023-03-07T07:30:22;9.18;;;5.05;;
77589;SDS011;66746;51.328;12.332;2023-03-07T07:32:51;8.57;;;5.70;;
77589;SDS011;66746;51.328;12.332;2023-03-07T07:35:25;8.88;;;5.28;;
77589;SDS011;66746;51.328;12.332;2023-03-07T07:37:56;9.25;;;5.70;;
77589;SDS011;66746;51.328;12.332;2023-03-07T07:40:26;9.20;;;5.40;;
77589;SDS011;66746;51.328;12.332;2023-03-07T07:42:53;10.20;;;6.32;;
77589;SDS011;66746;51.328;12.332;2023-03-07T07:45:31;7.30;;;5.35;;
77589;SDS011;66746;51.328;12.332;2023-03-07T07:47:58;7.65;;;4.45;;
77589;SDS011;66746;51.328;12.332;2023-03-07T07:50:29;6.10;;;5.32;;
77589;SDS011;66746;51.328;12.332;2023-03-07T07:52:55;7.25;;;5.00;;
77589;SDS011;66746;51.328;12.332;2023-03-07T07:55:23;6.38;;;4.10;;
77589;SDS011;66746;51.328;12.332;2023-03-07T07:57:53;9.20;;;5.72;;
77589;SDS011;66746;51.328;12.332;2023-03-07T08:00:22;8.48;;;5.03;;
77589;SDS011;66746;51.328;12.332;2023-03-07T08:02:51;8.65;;;6.18;;
77589;SDS011;66746;51.328;12.332;2023-03-07T08:05:26;8.38;;;5.57;;
77589;SDS011;66746;51.328;12.332;2023-03-07T08:07:55;9.60;;;5.63;;
77589;SDS011;66746;51.328;12.332;2023-03-07T08:10:22;5.70;;;3.95;;
77589;SDS011;66746;51.328;12.332;2023-03-07T08:12:55;8.63;;;4.70;;
77589;SDS011;66746;51.328;12.332;2023-03-07T08:15:28;5.50;;;4.90;;
77589;SDS011;66746;51.328;12.332;2023-03-07T08:17:54;6.20;;;5.50;;
77589;SDS011;66746;51.328;12.332;2023-03-07T08:20:23;7.43;;;5.07;;
77589;SDS011;66746;51.328;12.332;2023-03-07T08:22:51;7.85;;;4.72;;
77589;SDS011;66746;51.328;12.332;2023-03-07T08:25:24;6.88;;;4.30;;
77589;SDS011;66746;51.328;12.332;2023-03-07T08:27:51;6.80;;;4.30;;
77589;SDS011;66746;51.328;12.332;2023-03-07T08:30:22;7.20;;;4.13;;
77589;SDS011;66746;51.328;12.332;2023-03-07T08:32:57;6.15;;;4.43;;
77589;SDS011;66746;51.328;12.332;2023-03-07T08:35:26;7.95;;;4.88;;
77589;SDS011;66746;51.328;12.332;2023-03-07T08:37:57;6.65;;;4.78;;
77589;SDS011;66746;51.328;12.332;2023-03-07T08:42:54;5.53;;;4.13;;
77589;SDS011;66746;51.328;12.332;2023-03-07T08:45:26;6.32;;;4.05;;
77589;SDS011;66746;51.328;12.332;2023-03-07T08:47:52;7.15;;;5.07;;
77589;SDS011;66746;51.328;12.332;2023-03-07T08:50:27;7.60;;;4.35;;
77589;SDS011;66746;51.328;12.332;2023-03-07T08:52:55;6.88;;;4.85;;
77589;SDS011;66746;51.328;12.332;2023-03-07T08:55:25;6.68;;;4.25;;
77589;SDS011;66746;51.328;12.332;2023-03-07T08:57:57;7.38;;;5.15;;
77589;SDS011;66746;51.328;12.332;2023-03-07T09:00:24;7.40;;;4.75;;
77589;SDS011;66746;51.328;12.332;2023-03-07T09:02:52;6.60;;;4.78;;
77589;SDS011;66746;51.328;12.332;2023-03-07T09:05:25;8.18;;;5.13;;
77589;SDS011;66746;51.328;12.332;2023-03-07T09:07:54;7.60;;;4.63;;
77589;SDS011;66746;51.328;12.332;2023-03-07T09:10:23;6.35;;;4.13;;
77589;SDS011;66746;51.328;12.332;2023-03-07T09:12:52;8.05;;;4.80;;
77589;SDS011;66746;51.328;12.332;2023-03-07T09:15:19;7.45;;;4.65;;
77589;SDS011;66746;51.328;12.332;2023-03-07T09:17:48;8.43;;;5.22;;
77589;SDS011;66746;51.328;12.332;2023-03-07T09:20:14;8.10;;;5.32;;
77589;SDS011;66746;51.328;12.332;2023-03-07T09:22:41;7.82;;;5.18;;
77589;SDS011;66746;51.328;12.332;2023-03-07T09:25:09;7.47;;;4.72;;
77589;SDS011;66746;51.328;12.332;2023-03-07T09:27:36;10.68;;;5.75;;
77589;SDS011;66746;51.328;12.332;2023-03-07T09:30:03;7.13;;;5.03;;
77589;SDS011;66746;51.328;12.332;2023-03-07T09:32:30;8.82;;;5.25;;
77589;SDS011;66746;51.328;12.332;2023-03-07T09:34:57;7.90;;;5.15;;
77589;SDS011;66746;51.328;12.332;2023-03-07T09:37:25;8.10;;;5.57;;
77589;SDS011;66746;51.328;12.332;2023-03-07T09:39:52;8.57;;;5.22;;
77589;SDS011;66746;51.328;12.332;2023-03-07T09:42:20;8.65;;;5.15;;
77589;SDS011;66746;51.328;12.332;2023-03-07T09:45:03;7.30;;;5.45;;
77589;SDS011;66746;51.328;12.332;2023-03-07T09:47:54;7.32;;;5.85;;
77589;SDS011;66746;51.328;12.332;2023-03-07T09:50:33;8.38;;;5.32;;
77589;SDS011;66746;51.328;12.332;2023-03-07T09:53:04;7.70;;;5.20;;
77589;SDS011;66746;51.328;12.332;2023-03-07T09:55:38;8.25;;;6.50;;
77589;SDS011;66746;51.328;12.332;2023-03-07T09:58:07;7.97;;;5.47;;
77589;SDS011;66746;51.328;12.332;2023-03-07T10:00:41;6.72;;;5.10;;
77589;SDS011;66746;51.328;12.332;2023-03-07T10:03:11;8.95;;;5.80;;
77589;SDS011;66746;51.328;12.332;2023-03-07T10:05:47;8.32;;;5.20;;
77589;SDS011;66746;51.328;12.332;2023-03-07T10:08:19;10.90;;;6.53;;
77589;SDS011;66746;51.328;12.332;2023-03-07T10:10:48;9.55;;;6.35;;
77589;SDS011;66746;51.328;12.332;2023-03-07T10:13:28;10.57;;;5.20;;
77589;SDS011;66746;51.328;12.332;2023-03-07T10:16:08;10.07;;;5.93;;
77589;SDS011;66746;51.328;12.332;2023-03-07T10:18:45;9.25;;;6.38;;
77589;SDS011;66746;51.328;12.332;2023-03-07T10:21:27;9.48;;;5.80;;
77589;SDS011;66746;51.328;12.332;2023-03-07T10:24:07;9.77;;;5.53;;
77589;SDS011;66746;51.328;12.332;2023-03-07T10:26:43;10.70;;;7.18;;
77589;SDS011;66746;51.328;12.332;2023-03-07T10:29:18;9.73;;;6.18;;
77589;SDS011;66746;51.328;12.332;2023-03-07T10:31:53;9.27;;;6.35;;
77589;SDS011;66746;51.328;12.332;2023-03-07T10:34:28;7.72;;;4.80;;
77589;SDS011;66746;51.328;12.332;2023-03-07T10:36:59;7.82;;;5.15;;
77589;SDS011;66746;51.328;12.332;2023-03-07T10:39:36;9.45;;;5.55;;
77589;SDS011;66746;51.328;12.332;2023-03-07T10:42:07;9.10;;;6.38;;
77589;SDS011;66746;51.328;12.332;2023-03-07T10:44:38;8.10;;;5.45;;
77589;SDS011;66746;51.328;12.332;2023-03-07T10:47:05;9.50;;;6.20;;
77589;SDS011;66746;51.328;12.332;2023-03-07T10:49:31;8.57;;;6.45;;
77589;SDS011;66746;51.328;12.332;2023-03-07T10:52:04;10.45;;;6.20;;
77589;SDS011;66746;51.328;12.332;2023-03-07T10:54:38;11.45;;;7.32;;
77589;SDS011;66746;51.328;12.332;2023-03-07T10:57:06;11.50;;;6.63;;
77589;SDS011;66746;51.328;12.332;2023-03-07T10:59:34;9.15;;;6.13;;
77589;SDS011;66746;51.328;12.332;2023-03-07T11:02:17;11.05;;;6.38;;
77589;SDS011;66746;51.328;12.332;2023-03-07T11:04:55;9.13;;;6.07;;
77589;SDS011;66746;51.328;12.332;2023-03-07T11:07:23;12.63;;;6.82;;
77589;SDS011;66746;51.328;12.332;2023-03-07T11:09:54;9.35;;;5.88;;
77589;SDS011;66746;51.328;12.332;2023-03-07T11:12:22;9.70;;;6.20;;
77589;SDS011;66746;51.328;12.332;2023-03-07T11:17:24;9.93;;;6.80;;
77589;SDS011;66746;51.328;12.332;2023-03-07T11:19:52;8.05;;;5.32;;
77589;SDS011;66746;51.328;12.332;2023-03-07T11:22:21;8.88;;;6.45;;
77589;SDS011;66746;51.328;12.332;2023-03-07T11:24:55;9.18;;;6.55;;
77589;SDS011;66746;51.328;12.332;2023-03-07T11:27:25;8.73;;;5.85;;
77589;SDS011;66746;51.328;12.332;2023-03-07T11:33:00;8.93;;;5.38;;
77589;SDS011;66746;51.328;12.332;2023-03-07T11:35:44;7.57;;;5.47;;
77589;SDS011;66746;51.328;12.332;2023-03-07T11:38:27;7.78;;;5.00;;
77589;SDS011;66746;51.328;12.332;2023-03-07T11:41:01;7.80;;;6.07;;
77589;SDS011;66746;51.328;12.332;2023-03-07T11:46:29;7.68;;;5.53;;
77589;SDS011;66746;51.328;12.332;2023-03-07T11:49:09;8.27;;;6.30;;
77589;SDS011;66746;51.328;12.332;2023-03-07T11:51:53;7.82;;;5.50;;
77589;SDS011;66746;51.328;12.332;2023-03-07T11:54:31;9.45;;;5.68;;
77589;SDS011;66746;51.328;12.332;2023-03-07T11:57:10;7.97;;;5.18;;
77589;SDS011;66746;51.328;12.332;2023-03-07T12:00:02;8.88;;;5.55;;
77589;SDS011;66746;51.328;12.332;2023-03-07T12:02:47;6.50;;;4.97;;
77589;SDS011;66746;51.328;12.332;2023-03-07T12:05:37;6.80;;;5.40;;
77589;SDS011;66746;51.328;12.332;2023-03-07T12:08:19;10.40;;;5.45;;
77589;SDS011;66746;51.328;12.332;2023-03-07T12:10:58;7.80;;;5.30;;
77589;SDS011;66746;51.328;12.332;2023-03-07T12:13:37;9.02;;;5.38;;
77589;SDS011;66746;51.328;12.332;2023-03-07T12:16:17;12.18;;;5.53;;
77589;SDS011;66746;51.328;12.332;2023-03-07T12:19:01;9.45;;;5.55;;
77589;SDS011;66746;51.328;12.332;2023-03-07T12:21:48;9.23;;;5.57;;
77589;SDS011;66746;51.328;12.332;2023-03-07T12:24:38;11.23;;;5.95;;
77589;SDS011;66746;51.328;12.332;2023-03-07T12:27:13;10.27;;;5.70;;
77589;SDS011;66746;51.328;12.332;2023-03-07T12:29:45;7.35;;;5.28;;
77589;SDS011;66746;51.328;12.332;2023-03-07T12:32:26;11.30;;;5.45;;
77589;SDS011;66746;51.328;12.332;2023-03-07T12:34:54;8.38;;;5.95;;
77589;SDS011;66746;51.328;12.332;2023-03-07T12:37:29;7.05;;;5.05;;
77589;SDS011;66746;51.328;12.332;2023-03-07T12:40:03;8.80;;;5.72;;
77589;SDS011;66746;51.328;12.332;2023-03-07T12:42:36;8.25;;;4.88;;
77589;SDS011;66746;51.328;12.332;2023-03-07T12:45:08;8.90;;;5.75;;
77589;SDS011;66746;51.328;12.332;2023-03-07T12:47:42;8.70;;;5.38;;
77589;SDS011;66746;51.328;12.332;2023-03-07T12:50:17;9.52;;;5.85;;
77589;SDS011;66746;51.328;12.332;2023-03-07T12:53:00;8.80;;;5.05;;
77589;SDS011;66746;51.328;12.332;2023-03-07T12:55:37;9.73;;;6.15;;
77589;SDS011;66746;51.328;12.332;2023-03-07T12:58:09;8.02;;;5.55;;
77589;SDS011;66746;51.328;12.332;2023-03-07T13:00:46;8.38;;;5.85;;
77589;SDS011;66746;51.328;12.332;2023-03-07T13:03:17;9.40;;;6.18;;
77589;SDS011;66746;51.328;12.332;2023-03-07T13:05:54;10.32;;;6.65;;
77589;SDS011;66746;51.328;12.332;2023-03-07T13:08:22;8.65;;;6.18;;
77589;SDS011;66746;51.328;12.332;2023-03-07T13:10:52;8.60;;;5.65;;
77589;SDS011;66746;51.328;12.332;2023-03-07T13:13:46;8.98;;;5.63;;
77589;SDS011;66746;51.328;12.332;2023-03-07T13:16:35;10.10;;;5.82;;
77589;SDS011;66746;51.328;12.332;2023-03-07T13:28:31;7.28;;;5.35;;
77589;SDS011;66746;51.328;12.332;2023-03-07T13:33:52;8.38;;;5.32;;
77589;SDS011;66746;51.328;12.332;2023-03-07T13:36:30;10.48;;;5.68;;
77589;SDS011;66746;51.328;12.332;2023-03-07T13:38:58;7.65;;;5.63;;
77589;SDS011;66746;51.328;12.332;2023-03-07T13:41:45;9.98;;;6.82;;
77589;SDS011;66746;51.328;12.332;2023-03-07T13:47:03;8.10;;;5.78;;
77589;SDS011;66746;51.328;12.332;2023-03-07T13:57:57;8.52;;;5.95;;
77589;SDS011;66746;51.328;12.332;2023-03-07T14:00:31;8.75;;;6.75;;
77589;SDS011;66746;51.328;12.332;2023-03-07T14:03:02;10.75;;;6.25;;
77589;SDS011;66746;51.328;12.332;2023-03-07T14:05:43;8.88;;;5.78;;
77589;SDS011;66746;51.328;12.332;2023-03-07T14:08:09;10.02;;;5.95;;
77589;SDS011;66746;51.328;12.332;2023-03-07T14:10:39;7.47;;;5.00;;
77589;SDS011;66746;51.328;12.332;2023-03-07T14:13:34;8.10;;;4.68;;
77589;SDS011;66746;51.328;12.332;2023-03-07T14:19:08;7.88;;;5.57;;
77589;SDS011;66746;51.328;12.332;2023-03-07T14:21:45;7.38;;;5.20;;
77589;SDS011;66746;51.328;12.332;2023-03-07T14:24:27;7.40;;;5.20;;
77589;SDS011;66746;51.328;12.332;2023-03-07T14:27:09;8.23;;;4.82;;
77589;SDS011;66746;51.328;12.332;2023-03-07T14:29:47;7.05;;;4.95;;
77589;SDS011;66746;51.328;12.332;2023-03-07T14:32:22;7.80;;;6.45;;
77589;SDS011;66746;51.328;12.332;2023-03-07T14:34:54;6.75;;;4.95;;
77589;SDS011;66746;51.328;12.332;2023-03-07T14:40:00;7.63;;;5.47;;
77589;SDS011;66746;51.328;12.332;2023-03-07T14:42:41;7.28;;;4.78;;
77589;SDS011;66746;51.328;12.332;2023-03-07T14:45:21;8.95;;;5.20;;
77589;SDS011;66746;51.328;12.332;2023-03-07T14:48:01;9.80;;;5.53;;
77589;SDS011;66746;51.328;12.332;2023-03-07T14:50:37;9.13;;;5.65;;
77589;SDS011;66746;51.328;12.332;2023-03-07T14:53:10;6.80;;;5.15;;
77589;SDS011;66746;51.328;12.332;2023-03-07T14:55:42;5.50;;;4.15;;
77589;SDS011;66746;51.328;12.332;2023-03-07T14:58:15;5.80;;;2.75;;
77589;SDS011;66746;51.328;12.332;2023-03-07T15:00:45;5.07;;;3.83;;
77589;SDS011;66746;51.328;12.332;2023-03-07T15:03:28;4.78;;;3.30;;
77589;SDS011;66746;51.328;12.332;2023-03-07T15:05:56;3.97;;;2.53;;
77589;SDS011;66746;51.328;12.332;2023-03-07T15:08:26;3.63;;;2.38;;
77589;SDS011;66746;51.328;12.332;2023-03-07T15:10:57;3.95;;;2.92;;
77589;SDS011;66746;51.328;12.332;2023-03-07T15:13:30;3.08;;;2.53;;
77589;SDS011;66746;51.328;12.332;2023-03-07T15:16:02;4.22;;;2.45;;
77589;SDS011;66746;51.328;12.332;2023-03-07T15:18:34;4.43;;;3.00;;
77589;SDS011;66746;51.328;12.332;2023-03-07T15:21:03;3.03;;;2.20;;
77589;SDS011;66746;51.328;12.332;2023-03-07T15:23:31;3.47;;;2.65;;
77589;SDS011;66746;51.328;12.332;2023-03-07T15:25:59;8.38;;;2.60;;
77589;SDS011;66746;51.328;12.332;2023-03-07T15:28:28;2.92;;;2.00;;
77589;SDS011;66746;51.328;12.332;2023-03-07T15:30:57;2.72;;;2.22;;
77589;SDS011;66746;51.328;12.332;2023-03-07T15:33:25;4.03;;;2.63;;